Wetterstation Vordersexau
Wetterdaten: Woche 07.05.12 - 13.05.12 (KW19)
Datum Zeit Temp. A. Feuchte A. Luftdruck Regen Wind Richtung Taupunkt Windchill Windben
07.05.2012 00:00 9,9 C 84 % 1012,5 hPa 0,0 l/m 0,0 km/h O-SO 7,3 C 9,9 C 0,0 km/h
07.05.2012 01:00 8,5 C 84 % 1012,9 hPa 0,0 l/m 0,0 km/h O-NO 6,0 C 8,5 C 0,0 km/h
07.05.2012 02:00 7,4 C 84 % 1013,0 hPa 0,0 l/m 0,0 km/h SO 4,9 C 7,4 C 0,0 km/h
07.05.2012 03:00 7,3 C 84 % 1013,2 hPa 0,0 l/m 0,0 km/h O-SO 4,8 C 7,3 C 0,0 km/h
07.05.2012 04:00 7,3 C 83 % 1013,5 hPa 0,0 l/m 0,0 km/h O-NO 4,6 C 7,3 C 0,0 km/h
07.05.2012 05:00 7,6 C 82 % 1013,5 hPa 0,0 l/m 0,0 km/h O-SO 4,7 C 7,6 C 0,0 km/h
07.05.2012 06:00 7,6 C 81 % 1014,0 hPa 0,0 l/m 0,0 km/h O-NO 4,6 C 7,6 C 0,0 km/h
07.05.2012 07:00 8,4 C 80 % 1014,8 hPa 0,0 l/m 0,0 km/h S 5,2 C 8,4 C 0,0 km/h
07.05.2012 08:00 14,8 C 71 % 1015,1 hPa 0,0 l/m 10,4 km/h SW 9,6 C 12,7 C 5,8 km/h
07.05.2012 09:00 15,4 C 71 % 1015,5 hPa 0,0 l/m 20,7 km/h W 10,2 C 10,1 C 11,5 km/h
07.05.2012 10:00 19,1 C 57 % 1015,8 hPa 0,0 l/m 11,0 km/h S-SW 10,4 C 17,3 C 6,1 km/h
07.05.2012 11:00 16,5 C 62 % 1015,9 hPa 0,0 l/m 19,4 km/h W-SW 9,2 C 11,8 C 10,8 km/h
07.05.2012 12:00 16,9 C 62 % 1016,0 hPa 0,0 l/m 0,0 km/h W 9,6 C 16,9 C 0,0 km/h
07.05.2012 13:00 18,2 C 56 % 1015,9 hPa 0,0 l/m 2,6 km/h NO 9,3 C 18,2 C 1,4 km/h
07.05.2012 14:00 17,9 C 57 % 1015,6 hPa 0,0 l/m 0,0 km/h W-NW 9,3 C 17,9 C 0,0 km/h
07.05.2012 15:00 22,7 C 50 % 1015,6 hPa 0,0 l/m 0,0 km/h W-SW 11,7 C 22,7 C 0,0 km/h
07.05.2012 16:00 20,2 C 50 % 1015,2 hPa 0,0 l/m 0,0 km/h NW 9,4 C 20,2 C 0,0 km/h
07.05.2012 17:00 24,3 C 40 % 1014,8 hPa 0,0 l/m 5,2 km/h N-NW 9,8 C 24,3 C 2,9 km/h
07.05.2012 18:00 26,6 C 35 % 1014,5 hPa 0,0 l/m 0,0 km/h W 9,9 C 26,6 C 0,0 km/h
07.05.2012 19:00 20,7 C 43 % 1014,5 hPa 0,0 l/m 0,0 km/h W 7,7 C 20,7 C 0,0 km/h
07.05.2012 20:00 14,5 C 59 % 1014,9 hPa 0,0 l/m 0,0 km/h O-NO 6,6 C 14,5 C 0,0 km/h
07.05.2012 21:00 11,3 C 72 % 1015,4 hPa 0,0 l/m 0,0 km/h O-NO 6,4 C 11,3 C 0,0 km/h
07.05.2012 22:00 10,9 C 75 % 1015,8 hPa 0,0 l/m 0,0 km/h NO 6,6 C 10,9 C 0,0 km/h
07.05.2012 23:00 9,3 C 81 % 1015,7 hPa 0,0 l/m 0,0 km/h O-NO 6,2 C 9,3 C 0,0 km/h
08.05.2012 00:00 8,5 C 82 % 1015,8 hPa 0,0 l/m 0,0 km/h O-NO 5,6 C 8,5 C 0,0 km/h
08.05.2012 01:00 8,7 C 83 % 1015,4 hPa 0,0 l/m 0,0 km/h NO 6,0 C 8,7 C 0,0 km/h
08.05.2012 02:00 7,9 C 83 % 1014,9 hPa 0,0 l/m 0,0 km/h NO 5,2 C 7,9 C 0,0 km/h
08.05.2012 03:00 7,0 C 84 % 1014,9 hPa 0,0 l/m 0,0 km/h SO 4,5 C 7,0 C 0,0 km/h
08.05.2012 04:00 7,3 C 84 % 1014,7 hPa 0,0 l/m 5,8 km/h NO 4,8 C 7,3 C 3,2 km/h
08.05.2012 05:00 5,9 C 84 % 1014,8 hPa 0,0 l/m 0,0 km/h NO 3,4 C 5,9 C 0,0 km/h
08.05.2012 06:00 5,3 C 84 % 1014,6 hPa 0,0 l/m 0,0 km/h SO 2,8 C 5,3 C 0,0 km/h
08.05.2012 07:00 6,9 C 83 % 1014,4 hPa 0,0 l/m 0,0 km/h S-SO 4,2 C 6,9 C 0,0 km/h
08.05.2012 08:00 16,9 C 68 % 1014,0 hPa 0,0 l/m 5,8 km/h NO 11,0 C 16,9 C 3,2 km/h
08.05.2012 09:00 21,6 C 53 % 1013,7 hPa 0,0 l/m 0,0 km/h W 11,6 C 21,6 C 0,0 km/h
08.05.2012 10:00 23,5 C 46 % 1013,5 hPa 0,0 l/m 5,8 km/h W 11,2 C 23,5 C 3,2 km/h
08.05.2012 11:00 24,3 C 45 % 1013,0 hPa 0,0 l/m 0,0 km/h W 11,6 C 24,3 C 0,0 km/h
08.05.2012 12:00 23,6 C 40 % 1012,6 hPa 0,0 l/m 16,2 km/h S-SW 9,2 C 21,4 C 9,0 km/h
08.05.2012 13:00 22,6 C 41 % 1012,3 hPa 0,0 l/m 18,8 km/h W-SW 8,7 C 19,7 C 10,4 km/h
08.05.2012 14:00 21,8 C 42 % 1012,1 hPa 0,0 l/m 22,7 km/h W 8,3 C 18,1 C 12,6 km/h
08.05.2012 15:00 22,9 C 42 % 1012,0 hPa 0,0 l/m 21,4 km/h SW 9,3 C 19,8 C 11,9 km/h
08.05.2012 16:00 21,8 C 47 % 1012,2 hPa 0,0 l/m 16,2 km/h W-NW 10,0 C 19,2 C 9,0 km/h
08.05.2012 17:00 20,9 C 48 % 1012,1 hPa 0,0 l/m 0,0 km/h W-SW 9,5 C 20,9 C 0,0 km/h
08.05.2012 18:00 17,4 C 63 % 1013,0 hPa 0,0 l/m 24,0 km/h SO 10,3 C 12,0 C 13,3 km/h
08.05.2012 19:00 15,4 C 75 % 1013,1 hPa 0,0 l/m 5,2 km/h O 11,0 C 15,4 C 2,9 km/h
08.05.2012 20:00 13,9 C 79 % 1012,9 hPa 0,4 l/m 0,0 km/h S-SO 10,3 C 13,9 C 0,0 km/h
08.05.2012 21:00 13,6 C 82 % 1013,1 hPa 0,4 l/m 18,1 km/h O-SO 10,6 C 8,5 C 10,1 km/h
08.05.2012 22:00 13,2 C 82 % 1013,4 hPa 0,4 l/m 0,0 km/h SO 10,2 C 13,2 C 0,0 km/h
08.05.2012 23:00 13,1 C 83 % 1013,4 hPa 0,0 l/m 0,0 km/h N 10,3 C 13,1 C 0,0 km/h
09.05.2012 00:00 13,5 C 82 % 1013,3 hPa 0,0 l/m 0,0 km/h NO 10,5 C 13,5 C 0,0 km/h
09.05.2012 01:00 13,3 C 83 % 1013,5 hPa 0,0 l/m 0,0 km/h NO 10,5 C 13,3 C 0,0 km/h
09.05.2012 02:00 13,5 C 84 % 1013,2 hPa 0,0 l/m 0,0 km/h W-SW 10,8 C 13,5 C 0,0 km/h
09.05.2012 03:00 15,2 C 79 % 1013,6 hPa 0,0 l/m 3,9 km/h S 11,6 C 15,2 C 2,2 km/h
09.05.2012 04:00 15,1 C 79 % 1013,3 hPa 0,0 l/m 4,5 km/h SW 11,5 C 15,1 C 2,5 km/h
09.05.2012 05:00 15,3 C 79 % 1013,3 hPa 0,0 l/m 1,9 km/h S-SW 11,7 C 15,3 C 1,1 km/h
09.05.2012 06:00 15,5 C 78 % 1013,5 hPa 0,0 l/m 0,0 km/h SW 11,7 C 15,5 C 0,0 km/h
09.05.2012 07:00 15,7 C 77 % 1013,7 hPa 0,0 l/m 1,9 km/h S 11,7 C 15,7 C 1,1 km/h
09.05.2012 08:00 16,3 C 79 % 1014,1 hPa 0,0 l/m 8,4 km/h S 12,6 C 15,3 C 4,7 km/h
09.05.2012 09:00 17,6 C 75 % 1014,3 hPa 0,0 l/m 5,2 km/h W-SW 13,1 C 17,6 C 2,9 km/h
09.05.2012 10:00 16,1 C 80 % 1015,1 hPa 0,4 l/m 4,5 km/h SO 12,6 C 16,1 C 2,5 km/h
09.05.2012 11:00 16,9 C 82 % 1015,6 hPa 0,7 l/m 0,0 km/h S-SW 13,8 C 16,9 C 0,0 km/h
09.05.2012 12:00 20,3 C 79 % 1015,7 hPa 0,7 l/m 11,7 km/h SW 16,5 C 18,5 C 6,5 km/h
09.05.2012 13:00 19,3 C 75 % 1016,1 hPa 0,0 l/m 18,8 km/h S 14,8 C 15,5 C 10,4 km/h
09.05.2012 14:00 20,1 C 74 % 1016,2 hPa 0,0 l/m 22,0 km/h S 15,3 C 16,0 C 12,2 km/h
09.05.2012 15:00 21,8 C 65 % 1016,4 hPa 0,0 l/m 20,7 km/h SW 14,9 C 18,4 C 11,5 km/h
09.05.2012 16:00 21,1 C 68 % 1016,2 hPa 0,0 l/m 21,4 km/h S-SW 15,0 C 17,4 C 11,9 km/h
09.05.2012 17:00 20,8 C 70 % 1016,4 hPa 0,0 l/m 20,7 km/h SW 15,1 C 17,1 C 11,5 km/h
09.05.2012 18:00 22,4 C 62 % 1016,6 hPa 0,0 l/m 10,4 km/h S-SW 14,8 C 21,2 C 5,8 km/h
09.05.2012 19:00 20,1 C 68 % 1016,7 hPa 0,0 l/m 7,1 km/h SO 14,0 C 19,8 C 4,0 km/h
09.05.2012 20:00 19,0 C 73 % 1017,0 hPa 0,0 l/m 0,0 km/h NO 14,0 C 19,0 C 0,0 km/h
09.05.2012 21:00 16,3 C 79 % 1017,5 hPa 0,0 l/m 0,0 km/h SO 12,6 C 16,3 C 0,0 km/h
09.05.2012 22:00 14,3 C 83 % 1018,0 hPa 0,0 l/m 0,0 km/h SO 11,5 C 14,3 C 0,0 km/h
09.05.2012 23:00 13,0 C 83 % 1018,2 hPa 0,0 l/m 5,2 km/h O-NO 10,2 C 13,0 C 2,9 km/h
10.05.2012 00:00 12,4 C 83 % 1018,4 hPa 0,0 l/m 0,0 km/h O-NO 9,6 C 12,4 C 0,0 km/h
10.05.2012 01:00 11,9 C 83 % 1018,4 hPa 0,0 l/m 0,0 km/h O-NO 9,1 C 11,9 C 0,0 km/h
10.05.2012 02:00 11,6 C 82 % 1018,7 hPa 0,0 l/m 0,0 km/h SO 8,6 C 11,6 C 0,0 km/h
10.05.2012 03:00 11,3 C 81 % 1018,6 hPa 0,0 l/m 0,0 km/h SO 8,2 C 11,3 C 0,0 km/h
10.05.2012 04:00 10,9 C 81 % 1018,5 hPa 0,0 l/m 0,0 km/h NO 7,8 C 10,9 C 0,0 km/h
10.05.2012 05:00 11,2 C 79 % 1018,2 hPa 0,0 l/m 0,0 km/h SO 7,7 C 11,2 C 0,0 km/h
10.05.2012 06:00 11,9 C 78 % 1018,2 hPa 0,0 l/m 5,8 km/h O-SO 8,2 C 11,9 C 3,2 km/h
10.05.2012 07:00 13,3 C 78 % 1019,3 hPa 0,0 l/m 0,0 km/h NW 9,5 C 13,3 C 0,0 km/h
10.05.2012 08:00 20,9 C 73 % 1019,3 hPa 0,0 l/m 2,6 km/h W-NW 15,9 C 20,9 C 1,4 km/h
10.05.2012 09:00 24,9 C 59 % 1019,7 hPa 0,0 l/m 0,0 km/h W-SW 16,3 C 24,9 C 0,0 km/h
10.05.2012 10:00 28,1 C 54 % 1019,4 hPa 0,0 l/m 5,2 km/h W-SW 17,9 C 28,1 C 2,9 km/h
10.05.2012 11:00 29,5 C 51 % 1019,1 hPa 0,0 l/m 5,8 km/h W-SW 18,3 C 29,5 C 3,2 km/h
10.05.2012 12:00 28,8 C 47 % 1019,3 hPa 0,0 l/m 9,7 km/h W 16,3 C 28,4 C 5,4 km/h
10.05.2012 13:00 29,4 C 46 % 1018,8 hPa 0,0 l/m 24,0 km/h W-SW 16,5 C 28,2 C 13,3 km/h
10.05.2012 14:00 29,4 C 44 % 1018,6 hPa 0,0 l/m 24,0 km/h W-NW 15,8 C 28,2 C 13,3 km/h
10.05.2012 15:00 30,4 C 41 % 1018,5 hPa 0,0 l/m 21,4 km/h W 15,6 C 29,6 C 11,9 km/h
10.05.2012 16:00 33,3 C 38 % 1018,0 hPa 0,0 l/m 12,3 km/h SW 17,0 C 33,3 C 6,8 km/h
10.05.2012 17:00 33,1 C 36 % 1017,8 hPa 0,0 l/m 24,0 km/h W-SW 16,0 C 33,1 C 13,3 km/h
10.05.2012 18:00 32,4 C 39 % 1017,9 hPa 0,0 l/m 24,6 km/h SW 16,6 C 32,2 C 13,7 km/h
10.05.2012 19:00 29,0 C 45 % 1017,9 hPa 0,0 l/m 1,3 km/h SW 15,8 C 29,0 C 0,7 km/h
10.05.2012 20:00 24,8 C 56 % 1018,5 hPa 0,0 l/m 0,0 km/h NO 15,4 C 24,8 C 0,0 km/h
10.05.2012 21:00 20,4 C 70 % 1019,0 hPa 0,0 l/m 0,0 km/h O-NO 14,7 C 20,4 C 0,0 km/h
10.05.2012 22:00 18,6 C 75 % 1019,5 hPa 0,0 l/m 0,0 km/h NO 14,1 C 18,6 C 0,0 km/h
10.05.2012 23:00 17,8 C 78 % 1019,9 hPa 0,0 l/m 0,0 km/h SO 13,9 C 17,8 C 0,0 km/h
11.05.2012 00:00 16,8 C 80 % 1020,1 hPa 0,0 l/m 1,9 km/h O-SO 13,3 C 16,8 C 1,1 km/h
11.05.2012 01:00 16,7 C 81 % 1020,1 hPa 0,0 l/m 2,6 km/h SO 13,4 C 16,7 C 1,4 km/h
11.05.2012 02:00 16,0 C 81 % 1020,0 hPa 0,0 l/m 0,0 km/h SO 12,7 C 16,0 C 0,0 km/h
11.05.2012 03:00 15,6 C 82 % 1019,9 hPa 0,0 l/m 0,0 km/h O-NO 12,5 C 15,6 C 0,0 km/h
11.05.2012 04:00 14,1 C 82 % 1020,3 hPa 0,0 l/m 0,0 km/h NO 11,1 C 14,1 C 0,0 km/h
11.05.2012 05:00 14,1 C 83 % 1020,5 hPa 0,0 l/m 0,0 km/h NO 11,3 C 14,1 C 0,0 km/h
11.05.2012 06:00 14,8 C 83 % 1020,6 hPa 0,0 l/m 0,0 km/h SO 11,9 C 14,8 C 0,0 km/h
11.05.2012 07:00 16,3 C 82 % 1020,7 hPa 0,0 l/m 13,6 km/h SO 13,2 C 13,2 C 7,6 km/h
11.05.2012 08:00 22,7 C 69 % 1020,8 hPa 0,0 l/m 20,1 km/h O-SO 16,7 C 19,7 C 11,2 km/h
11.05.2012 09:00 26,9 C 63 % 1020,6 hPa 0,0 l/m 0,0 km/h SW 19,2 C 26,9 C 0,0 km/h
11.05.2012 10:00 31,6 C 44 % 1020,2 hPa 0,0 l/m 5,8 km/h W 17,8 C 31,6 C 3,2 km/h
11.05.2012 11:00 31,3 C 41 % 1020,3 hPa 0,0 l/m 24,0 km/h W 16,4 C 30,7 C 13,3 km/h
11.05.2012 12:00 31,1 C 37 % 1019,8 hPa 0,0 l/m 20,1 km/h SW 14,7 C 30,5 C 11,2 km/h
11.05.2012 13:00 30,9 C 37 % 1019,4 hPa 0,0 l/m 21,4 km/h SW 14,5 C 30,2 C 11,9 km/h
11.05.2012 14:00 31,7 C 39 % 1019,1 hPa 0,0 l/m 35,6 km/h W 16,0 C 31,1 C 19,8 km/h
11.05.2012 15:00 33,3 C 38 % 1018,4 hPa 0,0 l/m 29,8 km/h W-SW 17,0 C 33,3 C 16,6 km/h
11.05.2012 16:00 34,4 C 34 % 1018,1 hPa 0,0 l/m 27,2 km/h S-SW 16,2 C 34,4 C 15,1 km/h
11.05.2012 17:00 34,2 C 32 % 1017,8 hPa 0,0 l/m 25,3 km/h S-SW 15,1 C 34,2 C 14,0 km/h
11.05.2012 18:00 33,6 C 31 % 1017,3 hPa 0,0 l/m 25,3 km/h SW 14,1 C 33,6 C 14,0 km/h
11.05.2012 19:00 29,1 C 36 % 1017,6 hPa 0,0 l/m 21,4 km/h W 12,5 C 27,9 C 11,9 km/h
11.05.2012 20:00 25,5 C 43 % 1017,9 hPa 0,0 l/m 0,0 km/h W-NW 12,0 C 25,5 C 0,0 km/h
11.05.2012 21:00 23,6 C 54 % 1018,6 hPa 0,0 l/m 0,0 km/h N-NO 13,7 C 23,6 C 0,0 km/h
11.05.2012 22:00 22,3 C 65 % 1020,6 hPa 0,0 l/m 11,7 km/h N-NW 15,4 C 20,7 C 6,5 km/h
11.05.2012 23:00 19,8 C 73 % 1022,0 hPa 0,0 l/m 5,8 km/h N 14,8 C 19,8 C 3,2 km/h
12.05.2012 00:00 19,3 C 73 % 1021,7 hPa 0,0 l/m 0,0 km/h NW 14,3 C 19,3 C 0,0 km/h
12.05.2012 01:00 16,8 C 81 % 1022,6 hPa 0,7 l/m 0,0 km/h N-NO 13,5 C 16,8 C 0,0 km/h
12.05.2012 02:00 15,9 C 83 % 1022,7 hPa 3,6 l/m 0,0 km/h N-NO 13,0 C 15,9 C 0,0 km/h
12.05.2012 03:00 15,9 C 82 % 1023,2 hPa 0,7 l/m 0,0 km/h N 12,8 C 15,9 C 0,0 km/h
12.05.2012 04:00 13,6 C 84 % 1024,0 hPa 1,8 l/m 0,6 km/h N-NO 10,9 C 13,6 C 0,4 km/h
12.05.2012 05:00 12,4 C 84 % 1024,6 hPa 0,4 l/m 0,0 km/h N 9,8 C 12,4 C 0,0 km/h
12.05.2012 06:00 12,4 C 84 % 1025,2 hPa 0,0 l/m 0,0 km/h N-NW 9,8 C 12,4 C 0,0 km/h
12.05.2012 07:00 12,2 C 84 % 1025,9 hPa 0,0 l/m 0,0 km/h NW 9,6 C 12,2 C 0,0 km/h
12.05.2012 08:00 11,2 C 84 % 1027,0 hPa 0,7 l/m 0,0 km/h N 8,6 C 11,2 C 0,0 km/h
12.05.2012 09:00 12,9 C 83 % 1026,9 hPa 0,0 l/m 0,0 km/h NO 10,1 C 12,9 C 0,0 km/h
12.05.2012 10:00 12,4 C 82 % 1027,3 hPa 0,0 l/m 0,0 km/h N-NO 9,4 C 12,4 C 0,0 km/h
12.05.2012 11:00 13,9 C 77 % 1028,0 hPa 0,0 l/m 4,5 km/h N 9,9 C 13,9 C 2,5 km/h
12.05.2012 12:00 13,6 C 73 % 1028,5 hPa 0,0 l/m 3,2 km/h NO 8,9 C 13,6 C 1,8 km/h
12.05.2012 13:00 16,9 C 66 % 1029,0 hPa 0,0 l/m 13,6 km/h O-SO 10,5 C 13,9 C 7,6 km/h
12.05.2012 14:00 19,3 C 52 % 1029,1 hPa 0,0 l/m 1,3 km/h N-NO 9,2 C 19,3 C 0,7 km/h
12.05.2012 15:00 21,8 C 48 % 1029,2 hPa 0,0 l/m 0,0 km/h N 10,3 C 21,8 C 0,0 km/h
12.05.2012 16:00 20,4 C 44 % 1028,9 hPa 0,0 l/m 15,6 km/h N 7,7 C 17,6 C 8,6 km/h
12.05.2012 17:00 19,3 C 44 % 1028,8 hPa 0,0 l/m 8,4 km/h N-NO 6,7 C 18,5 C 4,7 km/h
12.05.2012 18:00 18,9 C 45 % 1028,6 hPa 0,0 l/m 0,0 km/h N-NO 6,7 C 18,9 C 0,0 km/h
12.05.2012 19:00 19,5 C 39 % 1028,3 hPa 0,0 l/m 0,6 km/h N-NO 5,2 C 19,5 C 0,4 km/h
12.05.2012 20:00 14,3 C 50 % 1028,6 hPa 0,0 l/m 4,5 km/h N-NO 4,0 C 14,3 C 2,5 km/h
12.05.2012 21:00 11,9 C 58 % 1029,1 hPa 0,0 l/m 0,0 km/h N 3,9 C 11,9 C 0,0 km/h
12.05.2012 22:00 10,4 C 64 % 1029,3 hPa 0,0 l/m 3,2 km/h N-NO 3,9 C 10,4 C 1,8 km/h
12.05.2012 23:00 10,1 C 66 % 1029,2 hPa 0,0 l/m 0,0 km/h N-NO 4,0 C 10,1 C 0,0 km/h
13.05.2012 00:00 10,1 C 66 % 1029,1 hPa 0,0 l/m 0,0 km/h N-NO 4,0 C 10,1 C 0,0 km/h
13.05.2012 01:00 9,8 C 65 % 1029,0 hPa 0,0 l/m 0,0 km/h N-NO 3,5 C 9,8 C 0,0 km/h
13.05.2012 02:00 9,1 C 67 % 1028,6 hPa 0,0 l/m 0,0 km/h SO 3,3 C 9,1 C 0,0 km/h
13.05.2012 03:00 6,6 C 76 % 1028,1 hPa 0,0 l/m 0,0 km/h SO 2,7 C 6,6 C 0,0 km/h
13.05.2012 04:00 4,9 C 81 % 1027,4 hPa 0,0 l/m 0,0 km/h W 1,9 C 4,9 C 0,0 km/h
13.05.2012 05:00 6,1 C 83 % 1027,2 hPa 0,0 l/m 0,0 km/h W 3,4 C 6,1 C 0,0 km/h
13.05.2012 06:00 6,4 C 84 % 1026,9 hPa 0,0 l/m 0,0 km/h W-SW 3,9 C 6,4 C 0,0 km/h
13.05.2012 07:00 8,4 C 83 % 1027,0 hPa 0,0 l/m 1,9 km/h N-NO 5,7 C 8,4 C 1,1 km/h
13.05.2012 08:00 16,0 C 55 % 1026,4 hPa 0,0 l/m 0,0 km/h NO 7,0 C 16,0 C 0,0 km/h
13.05.2012 09:00 17,4 C 48 % 1026,2 hPa 0,0 l/m 2,6 km/h N 6,3 C 17,4 C 1,4 km/h
13.05.2012 10:00 19,1 C 42 % 1025,8 hPa 0,0 l/m 2,6 km/h N-NO 5,9 C 19,1 C 1,4 km/h
13.05.2012 11:00 19,3 C 37 % 1025,5 hPa 0,0 l/m 5,2 km/h N-NO 4,2 C 19,3 C 2,9 km/h
13.05.2012 12:00 18,3 C 39 % 1025,3 hPa 0,0 l/m 5,8 km/h O-NO 4,1 C 18,3 C 3,2 km/h
13.05.2012 13:00 19,2 C 36 % 1024,4 hPa 0,0 l/m 5,8 km/h NO 3,8 C 19,2 C 3,2 km/h
13.05.2012 14:00 19,8 C 36 % 1023,7 hPa 0,0 l/m 8,4 km/h N 4,3 C 19,0 C 4,7 km/h
13.05.2012 15:00 21,3 C 31 % 1023,5 hPa 0,0 l/m 2,6 km/h O-NO 3,5 C 21,3 C 1,4 km/h
13.05.2012 16:00 23,6 C 28 % 1022,9 hPa 0,0 l/m 0,0 km/h NO 4,0 C 23,6 C 0,0 km/h
13.05.2012 17:00 22,3 C 29 % 1022,4 hPa 0,0 l/m 0,0 km/h N 3,4 C 22,3 C 0,0 km/h
13.05.2012 18:00 23,1 C 26 % 1022,1 hPa 0,0 l/m 7,1 km/h N-NO 2,5 C 22,9 C 4,0 km/h
13.05.2012 19:00 17,5 C 37 % 1022,0 hPa 0,0 l/m 1,9 km/h N-NO 2,7 C 17,5 C 1,1 km/h
13.05.2012 20:00 12,9 C 45 % 1022,1 hPa 0,0 l/m 5,8 km/h NO 1,3 C 12,9 C 3,2 km/h
13.05.2012 21:00 10,6 C 50 % 1022,4 hPa 0,0 l/m 0,0 km/h N-NO 0,6 C 10,6 C 0,0 km/h
13.05.2012 22:00 7,8 C 61 % 1022,4 hPa 0,0 l/m 0,0 km/h O-SO 0,8 C 7,8 C 0,0 km/h
13.05.2012 23:00 5,8 C 69 % 1022,2 hPa 0,0 l/m 0,0 km/h SO 0,6 C 5,8 C 0,0 km/h
Min-Datum _ 13.05.12 13.05.12 08.05.12 - 07.05.12 - 13.05.12 13.05.12 07.05.12
_ Min-Zeit 04:30 18:30 15:30 - 00:30 - 23:30 04:30 00:30
Minimum _ 4,9 C 26 % 1012,0 hPa - 0,0 km/h - 0,6 C 4,9 C 0,0 km/h
Max-Datum _ 11.05.12 07.05.12 12.05.12 12.05.12 11.05.12 - 11.05.12 11.05.12 11.05.12
_ Max-Zeit 16:30 00:30 22:30 02:30 14:30 - 09:30 16:30 14:30
Maximum _ 34,4 C 84 % 1029,3 hPa 3,6 l/m 35,6 km/h
W
- 19,2 C 34,4 C 19,8 km/h
W
Durchschnitt _ 17,5 C 64 % 1019,1 hPa #10,7 l/m 5,7 km/h NO 9,9 C 17,0 C 3,2 km/h
www.sexauwetter.de